Time;durP1;ratioP1;P1;durP2;ratioP2;P2;SDS_P1;SDS_P2;PMS_P1;PMS_P2;Temp;Humidity;BMP_temperature;BMP_pressure;BME280_temperature;BME280_humidity;BME280_pressure;Samples;Min_cycle;Max_cycle;Signal;HPM_P1;HPM_P2
2023/03/08 00:00:23;;;;;;;1.43;1.33;;;;;;;3.28;100.00;98622.81;4956647;28;20427;-80
2023/03/08 00:02:49;;;;;;;1.17;1.07;;;;;;;3.12;100.00;98625.25;4989234;28;20204;-79
2023/03/08 00:05:15;;;;;;;1.30;1.20;;;;;;;3.19;100.00;98622.34;4972324;28;20304;-80
2023/03/08 00:07:41;;;;;;;0.97;0.97;;;;;;;3.06;100.00;98628.88;4973563;28;20181;-84
2023/03/08 00:10:07;;;;;;;2.30;1.20;;;;;;;3.61;100.00;98620.31;4962556;28;20541;-81
2023/03/08 00:12:32;;;;;;;1.00;1.00;;;;;;;3.44;100.00;98623.69;4971055;28;20180;-81
2023/03/08 00:14:57;;;;;;;1.30;1.03;;;;;;;3.25;100.00;98616.16;4971639;28;20199;-83
2023/03/08 00:17:23;;;;;;;2.40;1.13;;;;;;;3.27;100.00;98610.97;4988102;28;20219;-83
2023/03/08 00:19:50;;;;;;;2.20;1.60;;;;;;;3.25;100.00;98617.84;4973186;28;20275;-83
2023/03/08 00:22:15;;;;;;;3.30;1.10;;;;;;;3.27;100.00;98618.59;4973878;28;20241;-82
2023/03/08 00:24:40;;;;;;;4.90;1.50;;;;;;;3.30;100.00;98616.75;4971561;28;20711;-82
2023/03/08 00:27:06;;;;;;;0.93;0.93;;;;;;;3.32;100.00;98622.56;4971593;28;20234;-82
2023/03/08 00:29:31;;;;;;;1.37;1.27;;;;;;;3.32;100.00;98609.84;4972747;28;20184;-81
2023/03/08 00:31:56;;;;;;;1.00;1.00;;;;;;;3.28;100.00;98612.63;4963608;28;20627;-78
2023/03/08 00:34:22;;;;;;;1.70;1.60;;;;;;;3.37;100.00;98610.47;4972179;28;20184;-81
2023/03/08 00:36:47;;;;;;;1.60;1.50;;;;;;;3.31;100.00;98615.00;4972274;28;20192;-81
2023/03/08 00:39:13;;;;;;;1.63;1.53;;;;;;;3.41;100.00;98608.56;4971568;28;20191;-81
2023/03/08 00:41:39;;;;;;;1.80;1.70;;;;;;;3.42;100.00;98607.69;4964586;28;20695;-81
2023/03/08 00:44:04;;;;;;;2.13;1.93;;;;;;;3.37;100.00;98609.63;4975366;28;20234;-81
2023/03/08 00:46:29;;;;;;;2.30;2.10;;;;;;;3.21;100.00;98601.94;4972823;28;20191;-82
2023/03/08 00:48:54;;;;;;;1.80;1.70;;;;;;;3.27;100.00;98599.09;4965629;28;20208;-82
2023/03/08 00:51:20;;;;;;;2.37;2.07;;;;;;;3.23;100.00;98602.69;4964057;28;20285;-82
2023/03/08 00:53:47;;;;;;;2.07;1.93;;;;;;;3.35;100.00;98601.25;4976896;28;20191;-81
2023/03/08 00:56:12;;;;;;;2.37;2.17;;;;;;;3.43;100.00;98606.78;4978387;28;20172;-79
2023/03/08 00:58:39;;;;;;;2.33;2.13;;;;;;;3.49;100.00;98601.41;4970082;28;20196;-80
2023/03/08 01:01:06;;;;;;;2.60;2.40;;;;;;;3.51;100.00;98599.63;4970189;28;20251;-80
2023/03/08 01:03:32;;;;;;;2.67;2.47;;;;;;;3.52;100.00;98600.44;4970811;28;20184;-81
2023/03/08 01:06:03;;;;;;;3.07;2.87;;;;;;;3.52;100.00;98603.81;4971265;28;20194;-79
2023/03/08 01:08:28;;;;;;;2.77;2.57;;;;;;;3.53;100.00;98602.06;4968709;28;20195;-80
2023/03/08 01:10:57;;;;;;;2.90;2.70;;;;;;;3.50;100.00;98597.16;4961265;28;20227;-81
2023/03/08 01:13:23;;;;;;;3.10;2.90;;;;;;;3.54;100.00;98591.81;4979967;28;20184;-81
2023/03/08 01:15:49;;;;;;;3.60;3.13;;;;;;;3.40;100.00;98594.25;4970937;28;20195;-81
2023/03/08 01:18:15;;;;;;;3.27;2.97;;;;;;;3.33;100.00;98596.25;4959965;28;20636;-81
2023/03/08 01:20:41;;;;;;;3.60;3.30;;;;;;;3.31;100.00;98589.59;4964105;28;20349;-79
2023/03/08 01:23:06;;;;;;;3.30;3.00;;;;;;;3.28;100.00;98574.50;4985044;28;20190;-81
2023/03/08 01:25:32;;;;;;;3.73;3.43;;;;;;;3.21;100.00;98579.91;4976207;28;20195;-81
2023/03/08 01:27:57;;;;;;;3.90;2.43;;;;;;;3.30;100.00;98573.53;4974691;28;20271;-81
2023/03/08 01:30:22;;;;;;;3.27;3.00;;;;;;;3.31;100.00;98569.25;4967299;28;20228;-80
2023/03/08 01:32:47;;;;;;;3.70;3.40;;;;;;;3.35;100.00;98570.75;4988586;28;20227;-82
2023/03/08 01:35:13;;;;;;;3.43;3.13;;;;;;;3.36;100.00;98562.22;4975205;28;20188;-81
2023/03/08 01:37:38;;;;;;;3.33;3.03;;;;;;;3.35;100.00;98547.88;4974639;28;20184;-81
2023/03/08 01:40:05;;;;;;;5.03;3.33;;;;;;;3.32;100.00;98546.31;4967963;28;20184;-79
2023/03/08 01:42:31;;;;;;;3.50;3.20;;;;;;;3.27;100.00;98550.81;4989541;28;20247;-80
2023/03/08 01:44:59;;;;;;;4.10;2.97;;;;;;;3.00;100.00;98546.19;4979266;28;20627;-82
2023/03/08 01:47:27;;;;;;;4.03;3.63;;;;;;;2.94;100.00;98543.94;4974764;28;20188;-80
2023/03/08 01:49:55;;;;;;;5.60;3.50;;;;;;;2.97;100.00;98548.06;4974222;28;20199;-81
2023/03/08 01:52:27;;;;;;;4.43;3.23;;;;;;;3.04;100.00;98549.41;4957936;28;20599;-81
2023/03/08 01:54:57;;;;;;;3.53;3.23;;;;;;;3.04;100.00;98549.41;4960768;28;20199;-81
2023/03/08 01:57:28;;;;;;;3.53;3.23;;;;;;;2.98;100.00;98549.69;4975589;28;20180;-81
2023/03/08 02:00:02;;;;;;;3.43;3.13;;;;;;;3.10;100.00;98538.09;4958484;28;20200;-80
2023/03/08 02:02:35;;;;;;;5.73;3.53;;;;;;;3.00;100.00;98530.09;4964122;28;20220;-82
2023/03/08 02:05:00;;;;;;;6.10;3.57;;;;;;;2.96;100.00;98529.44;4974212;28;20520;-81
2023/03/08 02:07:25;;;;;;;3.70;3.40;;;;;;;2.93;100.00;98521.13;4974156;28;20187;-81
2023/03/08 02:09:51;;;;;;;3.37;3.07;;;;;;;2.79;100.00;98525.19;4973741;28;20581;-80
2023/03/08 02:12:16;;;;;;;3.57;3.27;;;;;;;3.03;100.00;98522.34;4974038;28;20237;-81
2023/03/08 02:14:43;;;;;;;3.63;3.23;;;;;;;2.94;100.00;98513.47;4975224;28;20189;-81
2023/03/08 02:17:09;;;;;;;3.27;2.97;;;;;;;2.90;100.00;98512.78;4975663;28;20227;-81
2023/03/08 02:19:45;;;;;;;4.70;3.13;;;;;;;2.96;100.00;98503.22;4974196;28;20214;-79
2023/03/08 02:22:12;;;;;;;3.47;3.17;;;;;;;3.09;100.00;98496.66;4965108;28;20338;-79
2023/03/08 02:24:38;;;;;;;3.80;3.50;;;;;;;3.12;100.00;98493.13;4973088;28;20188;-81
2023/03/08 02:27:11;;;;;;;3.80;3.50;;;;;;;3.06;100.00;98491.69;4975047;28;20182;-80
2023/03/08 02:29:37;;;;;;;4.17;3.67;;;;;;;3.13;100.00;98489.69;4942813;29;20189;-80
2023/03/08 02:32:03;;;;;;;3.70;3.03;;;;;;;3.16;100.00;98482.75;4975781;28;20226;-79
2023/03/08 02:34:28;;;;;;;3.93;3.53;;;;;;;3.26;100.00;98487.34;4974778;28;20722;-79
2023/03/08 02:36:53;;;;;;;4.03;3.67;;;;;;;3.04;100.00;98485.91;4975254;28;20180;-80
2023/03/08 02:39:18;;;;;;;3.87;3.57;;;;;;;3.03;100.00;98477.44;4977747;28;20176;-79
2023/03/08 02:41:44;;;;;;;3.60;3.30;;;;;;;3.18;100.00;98477.56;4965785;28;20278;-79
2023/03/08 02:44:09;;;;;;;4.23;3.83;;;;;;;3.20;100.00;98485.94;4971660;28;20239;-79
2023/03/08 02:46:34;;;;;;;4.00;3.50;;;;;;;3.01;100.00;98474.13;4973429;28;20262;-79
2023/03/08 02:49:00;;;;;;;3.90;3.60;;;;;;;2.95;100.00;98474.44;4973689;28;20191;-79
2023/03/08 02:51:25;;;;;;;4.30;3.90;;;;;;;2.80;100.00;98472.66;4974778;28;20230;-77
2023/03/08 02:53:50;;;;;;;3.70;3.40;;;;;;;2.70;100.00;98469.75;4977764;28;20212;-75
2023/03/08 02:56:15;;;;;;;4.90;4.37;;;;;;;2.90;100.00;98468.78;4979223;28;20274;-78
2023/03/08 02:58:41;;;;;;;5.63;3.73;;;;;;;2.85;100.00;98460.56;4972251;28;20176;-79
2023/03/08 03:01:11;;;;;;;3.87;3.47;;;;;;;2.84;100.00;98469.91;4972562;28;20585;-79
2023/03/08 03:03:37;;;;;;;4.30;3.90;;;;;;;3.03;100.00;98462.19;4971877;28;20196;-79
2023/03/08 03:06:02;;;;;;;4.50;4.10;;;;;;;3.01;100.00;98465.72;4971370;28;20223;-79
2023/03/08 03:08:29;;;;;;;7.03;4.63;;;;;;;3.08;100.00;98459.44;4973348;28;20577;-78
2023/03/08 03:10:54;;;;;;;3.70;3.40;;;;;;;3.12;100.00;98460.91;4964700;28;20561;-77
2023/03/08 03:13:20;;;;;;;4.13;3.73;;;;;;;3.11;100.00;98450.84;4982609;28;20199;-78
2023/03/08 03:15:45;;;;;;;4.20;3.57;;;;;;;2.90;100.00;98454.38;4973030;28;20188;-78
2023/03/08 03:18:10;;;;;;;4.20;3.73;;;;;;;3.03;100.00;98448.69;4972324;28;20223;-80
2023/03/08 03:20:36;;;;;;;7.83;3.80;;;;;;;2.97;100.00;98451.53;4968328;28;20231;-79
2023/03/08 03:23:02;;;;;;;4.37;3.77;;;;;;;2.97;100.00;98452.34;4995411;28;20181;-79
2023/03/08 03:25:27;;;;;;;4.43;3.93;;;;;;;3.07;100.00;98455.25;4974114;28;20191;-79
2023/03/08 03:27:53;;;;;;;4.37;3.97;;;;;;;3.14;100.00;98454.03;4973683;28;20247;-79
2023/03/08 03:30:19;;;;;;;4.40;4.00;;;;;;;3.05;100.00;98451.94;4966249;28;20196;-80
2023/03/08 03:32:44;;;;;;;4.43;4.03;;;;;;;3.05;100.00;98451.94;4986302;28;20250;-80
2023/03/08 03:35:09;;;;;;;4.87;4.20;;;;;;;3.01;100.00;98451.28;4972679;28;20255;-80
2023/03/08 03:37:36;;;;;;;5.23;4.73;;;;;;;2.99;100.00;98447.16;4973625;28;20180;-80
2023/03/08 03:40:02;;;;;;;6.90;5.13;;;;;;;2.65;100.00;98446.31;4973834;28;20190;-79
2023/03/08 03:42:27;;;;;;;6.87;5.10;;;;;;;2.77;100.00;98447.41;4962317;28;20294;-79
2023/03/08 03:44:52;;;;;;;6.43;5.23;;;;;;;2.79;100.00;98443.94;4977620;28;20315;-78
2023/03/08 03:47:18;;;;;;;5.83;4.87;;;;;;;2.92;100.00;98441.59;4973506;28;20175;-80
2023/03/08 03:49:43;;;;;;;8.60;5.93;;;;;;;2.96;100.00;98440.53;4972284;28;20207;-80
2023/03/08 03:52:08;;;;;;;9.50;7.13;;;;;;;2.96;100.00;98437.19;4982279;28;20246;-81
2023/03/08 03:54:33;;;;;;;7.30;6.47;;;;;;;2.95;100.00;98433.00;4975724;28;20631;-81
2023/03/08 03:56:59;;;;;;;6.80;6.03;;;;;;;3.13;100.00;98428.72;4974639;28;20292;-79
2023/03/08 03:59:24;;;;;;;9.47;7.60;;;;;;;3.07;100.00;98423.03;4972170;28;20304;-80
2023/03/08 04:01:50;;;;;;;8.93;7.07;;;;;;;3.07;100.00;98415.41;4971678;28;20226;-79
2023/03/08 04:04:15;;;;;;;9.33;8.20;;;;;;;3.12;100.00;98425.34;4973349;28;20192;-81
2023/03/08 04:06:41;;;;;;;9.63;7.50;;;;;;;3.09;100.00;98424.66;4973256;28;20198;-80
2023/03/08 04:09:12;;;;;;;9.97;8.90;;;;;;;3.17;100.00;98423.38;4972396;28;20230;-80
2023/03/08 04:11:38;;;;;;;12.50;9.80;;;;;;;3.21;100.00;98416.41;4970683;28;20253;-80
2023/03/08 04:14:04;;;;;;;11.27;9.37;;;;;;;3.19;100.00;98416.50;4955274;28;20192;-80
2023/03/08 04:16:32;;;;;;;14.53;10.00;;;;;;;2.99;100.00;98417.53;4970299;28;20226;-80
2023/03/08 04:19:00;;;;;;;12.53;10.53;;;;;;;3.19;100.00;98406.34;4975602;28;20533;-79
2023/03/08 04:21:26;;;;;;;12.67;10.40;;;;;;;3.11;100.00;98403.38;4979582;28;20226;-80
2023/03/08 04:23:52;;;;;;;15.33;10.90;;;;;;;3.25;100.00;98405.22;4981789;28;20421;-79
2023/03/08 04:26:17;;;;;;;14.03;10.37;;;;;;;3.32;100.00;98403.16;4972889;28;20601;-79
2023/03/08 04:28:43;;;;;;;14.60;11.17;;;;;;;3.41;100.00;98402.69;4973105;28;20198;-79
2023/03/08 04:31:25;;;;;;;13.43;10.57;;;;;;;3.37;100.00;98396.97;4958533;28;20638;-79
2023/03/08 04:33:51;;;;;;;14.20;9.87;;;;;;;3.34;100.00;98383.59;4957955;28;20559;-79
2023/03/08 04:36:17;;;;;;;15.13;11.23;;;;;;;3.33;100.00;98384.47;4951515;28;20267;-79
2023/03/08 04:38:44;;;;;;;16.23;10.33;;;;;;;3.42;100.00;98390.81;4966277;28;20585;-79
2023/03/08 04:41:12;;;;;;;11.97;10.70;;;;;;;3.36;100.00;98394.47;4971208;28;20710;-79
2023/03/08 04:43:40;;;;;;;13.53;10.63;;;;;;;3.33;100.00;98398.00;4982959;28;20179;-79
2023/03/08 04:46:06;;;;;;;13.13;10.40;;;;;;;3.46;100.00;98397.38;4972353;28;20525;-79
2023/03/08 04:48:33;;;;;;;13.30;10.60;;;;;;;3.47;100.00;98392.19;4972720;28;20643;-80
2023/03/08 04:51:00;;;;;;;12.30;10.13;;;;;;;3.50;100.00;98386.97;4969858;28;20229;-78
2023/03/08 04:53:27;;;;;;;15.20;11.47;;;;;;;3.52;100.00;98385.16;4969673;28;20529;-79
2023/03/08 04:55:53;;;;;;;12.10;10.23;;;;;;;3.64;100.00;98385.41;4971939;28;20276;-79
2023/03/08 04:58:19;;;;;;;12.60;10.03;;;;;;;3.58;100.00;98386.53;4970293;28;20279;-78
2023/03/08 05:00:45;;;;;;;12.60;9.73;;;;;;;3.50;100.00;98386.16;4963212;28;20261;-78
2023/03/08 05:03:12;;;;;;;12.43;10.37;;;;;;;3.58;100.00;98385.72;4970456;28;20200;-79
2023/03/08 05:05:44;;;;;;;14.40;10.70;;;;;;;3.59;100.00;98377.22;4968097;28;20656;-79
2023/03/08 05:08:09;;;;;;;13.20;11.10;;;;;;;3.65;100.00;98370.06;4972206;28;20577;-80
2023/03/08 05:10:34;;;;;;;15.37;11.27;;;;;;;3.44;100.00;98366.94;4964402;28;20266;-79
2023/03/08 05:12:59;;;;;;;13.23;10.50;;;;;;;3.50;100.00;98365.81;4980084;28;20195;-80
2023/03/08 05:15:25;;;;;;;17.23;11.37;;;;;;;3.52;100.00;98359.75;4972039;28;20187;-80
2023/03/08 05:17:50;;;;;;;12.67;9.97;;;;;;;3.46;100.00;98357.53;4971984;28;20188;-78
2023/03/08 05:20:16;;;;;;;17.77;10.53;;;;;;;3.46;100.00;98352.44;4962963;28;20184;-80
2023/03/08 05:22:42;;;;;;;13.40;10.33;;;;;;;3.42;100.00;98352.69;4971085;28;20208;-79
2023/03/08 05:25:08;;;;;;;13.53;9.90;;;;;;;3.46;100.00;98352.44;4972478;28;20223;-80
2023/03/08 05:27:34;;;;;;;13.50;10.63;;;;;;;3.51;100.00;98339.47;4971954;28;20360;-81
2023/03/08 05:29:59;;;;;;;13.27;11.03;;;;;;;3.48;100.00;98350.63;4972030;28;20188;-78
2023/03/08 05:32:25;;;;;;;13.07;10.60;;;;;;;3.46;100.00;98354.16;4989097;28;20232;-80
2023/03/08 05:34:53;;;;;;;15.30;11.73;;;;;;;3.41;100.00;98341.66;4972392;28;20208;-79
2023/03/08 05:37:19;;;;;;;13.73;11.33;;;;;;;3.37;100.00;98338.50;4972230;28;20211;-80
2023/03/08 05:39:46;;;;;;;14.67;11.10;;;;;;;3.47;100.00;98331.19;4970653;28;20220;-79
2023/03/08 05:42:11;;;;;;;14.23;11.07;;;;;;;3.34;100.00;98332.75;4990895;28;20222;-79
2023/03/08 05:44:37;;;;;;;13.20;10.50;;;;;;;3.52;100.00;98321.59;4976926;28;20184;-79
2023/03/08 05:47:02;;;;;;;24.60;11.00;;;;;;;3.47;100.00;98312.56;4970985;28;20194;-80
2023/03/08 05:49:27;;;;;;;16.60;11.03;;;;;;;3.54;100.00;98311.34;4970750;28;20267;-80
2023/03/08 05:51:53;;;;;;;15.47;10.03;;;;;;;3.59;100.00;98306.03;4978255;28;20337;-80
2023/03/08 05:54:19;;;;;;;14.97;11.57;;;;;;;3.61;100.00;98311.81;4975903;28;20297;-80
2023/03/08 05:56:44;;;;;;;15.27;10.50;;;;;;;3.68;100.00;98303.78;4973882;28;20966;-80
2023/03/08 05:59:09;;;;;;;12.50;10.60;;;;;;;3.60;100.00;98298.31;4970730;28;20184;-80
2023/03/08 06:01:34;;;;;;;13.93;10.73;;;;;;;3.53;100.00;98297.00;4965595;28;20266;-80
2023/03/08 06:04:00;;;;;;;14.10;11.33;;;;;;;3.45;100.00;98310.13;4974046;28;20188;-80
2023/03/08 06:06:26;;;;;;;16.23;11.47;;;;;;;3.46;100.00;98314.31;4971803;28;20259;-79
2023/03/08 06:08:52;;;;;;;15.37;11.77;;;;;;;3.42;100.00;98322.97;4974401;28;20196;-79
2023/03/08 06:11:18;;;;;;;13.67;11.30;;;;;;;3.50;100.00;98309.88;4977248;28;20274;-80
2023/03/08 06:13:44;;;;;;;12.93;10.93;;;;;;;3.66;100.00;98289.50;4986161;28;20196;-79
2023/03/08 06:16:09;;;;;;;16.23;11.00;;;;;;;3.39;100.00;98303.63;4974828;28;20207;-80
2023/03/08 06:18:36;;;;;;;13.43;11.17;;;;;;;3.40;100.00;98301.94;4975845;28;20262;-79
2023/03/08 06:21:03;;;;;;;12.67;10.97;;;;;;;3.46;100.00;98296.53;4967230;28;20227;-80
2023/03/08 06:23:30;;;;;;;14.50;11.93;;;;;;;3.07;100.00;98292.66;4973677;28;20640;-80
2023/03/08 06:25:56;;;;;;;13.63;11.40;;;;;;;2.80;100.00;98284.75;4973307;28;20711;-79
2023/03/08 06:28:22;;;;;;;15.00;11.37;;;;;;;2.79;100.00;98286.50;4973840;28;20647;-80
2023/03/08 06:30:48;;;;;;;13.53;10.37;;;;;;;2.78;100.00;98281.47;4966984;28;20251;-80
2023/03/08 06:33:18;;;;;;;13.73;10.83;;;;;;;2.83;100.00;98282.03;4983930;28;20215;-80
2023/03/08 06:35:55;;;;;;;15.67;11.20;;;;;;;2.88;100.00;98269.94;4972874;28;20188;-80
2023/03/08 06:38:20;;;;;;;12.10;10.37;;;;;;;2.87;100.00;98269.13;4973695;28;20347;-80
2023/03/08 06:40:45;;;;;;;15.13;11.33;;;;;;;3.09;100.00;98264.63;4966326;28;20667;-80
2023/03/08 06:43:11;;;;;;;12.93;10.23;;;;;;;3.18;100.00;98269.22;4987191;28;20187;-80
2023/03/08 06:45:37;;;;;;;13.73;10.37;;;;;;;3.13;100.00;98263.56;4976865;28;20195;-80
2023/03/08 06:48:02;;;;;;;14.10;10.50;;;;;;;3.33;100.00;98263.31;4973337;28;20294;-78
2023/03/08 06:50:28;;;;;;;13.87;10.83;;;;;;;3.33;100.00;98265.84;4965264;28;20235;-78
2023/03/08 06:52:53;;;;;;;16.03;10.40;;;;;;;3.29;100.00;98269.47;4974353;28;20210;-79
2023/03/08 06:55:19;;;;;;;15.70;10.30;;;;;;;3.22;100.00;98268.16;4972213;28;20546;-80
2023/03/08 06:57:45;;;;;;;16.07;10.57;;;;;;;3.23;100.00;98264.72;4972380;28;20192;-80
2023/03/08 07:00:12;;;;;;;14.63;10.37;;;;;;;3.36;100.00;98254.69;4965849;28;20228;-80
2023/03/08 07:02:37;;;;;;;12.27;9.73;;;;;;;3.29;100.00;98254.22;4980712;28;20216;-80
2023/03/08 07:05:03;;;;;;;17.57;9.87;;;;;;;3.11;100.00;98260.28;4974295;28;20663;-78
2023/03/08 07:07:28;;;;;;;14.80;10.23;;;;;;;2.92;100.00;98258.72;4973273;28;20200;-79
2023/03/08 07:09:53;;;;;;;13.33;10.03;;;;;;;2.73;100.00;98252.06;4973642;28;20192;-80
2023/03/08 07:12:19;;;;;;;11.83;9.47;;;;;;;2.70;100.00;98253.94;4977933;28;20243;-80
2023/03/08 07:14:44;;;;;;;14.53;9.60;;;;;;;2.68;100.00;98258.28;4974538;28;20697;-80
2023/03/08 07:17:09;;;;;;;12.00;9.43;;;;;;;2.38;100.00;98246.25;4974695;28;20187;-81
2023/03/08 07:19:35;;;;;;;12.00;9.50;;;;;;;2.20;100.00;98238.66;4974345;28;20213;-81
2023/03/08 07:22:00;;;;;;;12.13;10.17;;;;;;;2.06;100.00;98238.53;4976173;28;20245;-80
2023/03/08 07:24:26;;;;;;;13.60;9.80;;;;;;;2.03;100.00;98233.63;4971183;28;20254;-79
2023/03/08 07:26:52;;;;;;;13.70;10.37;;;;;;;1.84;100.00;98232.00;4974168;28;20214;-82
2023/03/08 07:29:17;;;;;;;15.67;9.97;;;;;;;1.74;100.00;98231.59;4972624;28;20270;-81
2023/03/08 07:31:42;;;;;;;17.20;11.03;;;;;;;1.52;100.00;98224.22;4963706;28;20242;-80
2023/03/08 07:34:08;;;;;;;17.03;11.83;;;;;;;1.45;100.00;98217.78;4970595;28;20187;-81
2023/03/08 07:36:33;;;;;;;11.87;10.30;;;;;;;1.39;100.00;98213.00;4974028;28;20227;-79
2023/03/08 07:38:58;;;;;;;17.93;12.30;;;;;;;1.31;100.00;98203.25;4972939;28;20181;-81
2023/03/08 07:41:24;;;;;;;20.27;11.90;;;;;;;1.13;100.00;98197.34;4965883;28;20245;-78
2023/03/08 07:43:49;;;;;;;17.80;13.10;;;;;;;1.01;100.00;98195.38;4972241;28;20215;-79
2023/03/08 07:46:14;;;;;;;15.67;11.97;;;;;;;1.15;100.00;98192.19;4974270;28;20239;-79
2023/03/08 07:48:40;;;;;;;18.93;12.73;;;;;;;1.18;100.00;98185.28;4973018;28;20186;-80
2023/03/08 07:51:09;;;;;;;18.63;11.90;;;;;;;1.02;100.00;98179.28;4965928;28;20702;-78
2023/03/08 07:53:35;;;;;;;20.83;13.60;;;;;;;0.89;100.00;98171.44;4972171;28;20197;-78
2023/03/08 07:56:01;;;;;;;23.07;13.87;;;;;;;0.88;100.00;98173.16;4959904;28;20223;-78
2023/03/08 07:58:27;;;;;;;19.97;12.57;;;;;;;1.09;100.00;98170.50;4956894;28;20647;-78
2023/03/08 08:00:53;;;;;;;17.17;13.00;;;;;;;0.93;100.00;98160.25;4940631;28;20296;-78
2023/03/08 08:03:19;;;;;;;16.77;13.13;;;;;;;0.96;100.00;98152.53;4953461;28;20190;-80
2023/03/08 08:05:44;;;;;;;23.77;13.63;;;;;;;0.90;100.00;98148.56;4954529;28;20241;-79
2023/03/08 08:08:12;;;;;;;21.60;13.93;;;;;;;0.77;100.00;98147.50;4959982;28;20198;-78
2023/03/08 08:10:38;;;;;;;23.13;16.67;;;;;;;1.01;100.00;98137.94;4956974;28;20940;-79
2023/03/08 08:13:03;;;;;;;22.53;15.43;;;;;;;1.09;100.00;98124.91;4962734;28;20183;-77
2023/03/08 08:15:29;;;;;;;24.20;15.87;;;;;;;1.06;100.00;98118.28;4957493;28;20328;-77
2023/03/08 08:17:55;;;;;;;22.13;15.53;;;;;;;0.84;100.00;98121.00;4985303;28;20488;-77
2023/03/08 08:20:21;;;;;;;23.30;15.77;;;;;;;0.88;100.00;98121.69;4964010;28;20177;-78
2023/03/08 08:22:48;;;;;;;22.37;13.90;;;;;;;0.87;100.00;98117.50;4971248;28;20203;-78
2023/03/08 08:25:14;;;;;;;22.87;15.27;;;;;;;0.94;100.00;98118.88;4972212;28;20204;-79
2023/03/08 08:27:39;;;;;;;22.83;15.67;;;;;;;0.84;100.00;98115.94;4972951;28;20645;-77
2023/03/08 08:30:05;;;;;;;28.10;16.40;;;;;;;0.86;100.00;98109.13;4962750;28;20209;-77
2023/03/08 08:32:34;;;;;;;22.60;15.70;;;;;;;0.80;100.00;98117.00;4971551;28;20179;-78
2023/03/08 08:34:59;;;;;;;22.80;16.50;;;;;;;0.84;100.00;98115.94;4971295;28;20527;-80
2023/03/08 08:37:24;;;;;;;25.23;16.90;;;;;;;0.94;100.00;98117.19;4972947;28;20200;-79
2023/03/08 08:39:49;;;;;;;28.37;17.37;;;;;;;0.80;100.00;98105.16;4971496;28;20195;-78
2023/03/08 08:42:15;;;;;;;25.93;17.63;;;;;;;0.87;100.00;98087.13;4960900;28;20277;-79
2023/03/08 08:44:40;;;;;;;28.90;16.47;;;;;;;1.03;100.00;98083.00;4972457;28;20235;-77
2023/03/08 08:47:05;;;;;;;26.77;16.23;;;;;;;1.21;100.00;98067.81;4972285;28;20248;-78
2023/03/08 08:49:31;;;;;;;23.83;16.30;;;;;;;1.17;100.00;98059.53;4972289;28;20193;-78
2023/03/08 08:51:56;;;;;;;26.40;17.37;;;;;;;1.14;100.00;98049.53;4964168;28;20239;-78
2023/03/08 08:54:21;;;;;;;28.57;17.07;;;;;;;1.25;100.00;98037.19;4971661;28;20212;-79
2023/03/08 08:56:46;;;;;;;27.17;16.97;;;;;;;1.28;100.00;98046.34;4972619;28;20182;-78
2023/03/08 08:59:12;;;;;;;25.30;15.80;;;;;;;1.33;100.00;98046.94;4968967;28;20226;-80
2023/03/08 09:01:42;;;;;;;22.87;17.27;;;;;;;1.22;100.00;98039.88;4968539;28;20243;-80
2023/03/08 09:04:12;;;;;;;25.17;16.43;;;;;;;1.32;100.00;98040.25;4977559;28;20670;-79
2023/03/08 09:06:38;;;;;;;23.48;19.60;;;;;;;1.52;100.00;98044.28;4970132;28;21003;-79
2023/03/08 09:09:04;;;;;;;27.80;17.43;;;;;;;1.37;100.00;98034.94;4971801;28;20186;-79
2023/03/08 09:11:30;;;;;;;21.80;15.30;;;;;;;1.37;100.00;98024.81;4964554;28;20699;-80
2023/03/08 09:13:56;;;;;;;26.13;16.83;;;;;;;1.48;100.00;98027.63;4971864;28;20194;-80
2023/03/08 09:16:24;;;;;;;25.47;16.93;;;;;;;1.45;100.00;98037.91;4971927;28;20275;-81
2023/03/08 09:18:50;;;;;;;26.20;16.30;;;;;;;1.58;100.00;98041.47;4972012;28;20187;-80
2023/03/08 09:21:17;;;;;;;20.67;16.30;;;;;;;1.57;100.00;98033.94;4964113;28;20275;-81
2023/03/08 09:23:43;;;;;;;20.30;14.60;;;;;;;1.40;100.00;98038.16;4977806;28;20195;-80
2023/03/08 09:26:09;;;;;;;21.50;15.57;;;;;;;1.32;100.00;98034.38;4965561;28;20219;-78
2023/03/08 09:28:35;;;;;;;20.87;16.03;;;;;;;1.29;100.00;98023.47;4964715;28;20190;-81
2023/03/08 09:31:10;;;;;;;25.10;17.47;;;;;;;1.29;100.00;98033.59;4964354;28;20724;-81
2023/03/08 09:33:37;;;;;;;24.23;17.50;;;;;;;1.35;100.00;98029.13;4970444;28;20190;-81
2023/03/08 09:36:03;;;;;;;27.00;17.63;;;;;;;1.49;100.00;98019.13;4971800;28;20257;-80
2023/03/08 09:38:28;;;;;;;22.23;18.70;;;;;;;1.34;100.00;98024.94;4972809;28;20183;-81
2023/03/08 09:41:11;;;;;;;27.40;19.37;;;;;;;1.27;100.00;98019.38;4968965;28;20225;-80
2023/03/08 09:44:14;;;;;;;25.33;19.07;;;;;;;1.38;100.00;98013.78;4976258;28;20190;-78
2023/03/08 09:46:45;;;;;;;;;;;;;;;1.47;100.00;98015.84;4960607;28;459643;-78
2023/03/08 09:49:17;;;;;;;;;;;;;;;1.37;100.00;98023.09;4975107;28;20029;-79
2023/03/08 09:51:45;;;;;;;;;;;;;;;1.45;100.00;98015.94;4969146;28;19940;-78
2023/03/08 09:54:14;;;;;;;;;;;;;;;1.42;100.00;98013.53;4977082;28;19917;-80
2023/03/08 09:56:43;;;;;;;;;;;;;;;1.43;100.00;98001.69;4977343;28;19913;-81
2023/03/08 09:59:32;;;;;;;;;;;;;;;1.22;100.00;98001.06;4976465;28;19924;-79
2023/03/08 10:02:12;;;;;;;;;;;;;;;1.29;100.00;98000.69;4985355;28;19944;-80
2023/03/08 10:04:59;;;;;;;;;;;;;;;1.38;100.00;97989.25;4974680;28;19918;-79
2023/03/08 10:07:44;;;;;;;;;;;;;;;1.38;100.00;97976.59;4975788;28;19914;-79
2023/03/08 10:10:15;;;;;;;;;;;;;;;1.52;100.00;97985.22;4967183;28;19918;-81
2023/03/08 10:12:51;;;;;;;;;;;;;;;1.66;100.00;97990.38;4975429;28;20338;-81
2023/03/08 10:15:18;;;;;;;;;;;;;;;1.69;100.00;97980.09;4976606;28;19948;-78
2023/03/08 10:17:49;;;;;;;;;;;;;;;1.81;100.00;97973.56;4974565;28;20373;-80
2023/03/08 10:20:20;;;;;;;;;;;;;;;1.74;100.00;97970.53;4967981;28;19913;-81
2023/03/08 10:22:47;;;;;;;;;;;;;;;1.91;100.00;97963.72;4960257;28;19925;-78
2023/03/08 10:25:30;;;;;;;;;;;;;;;1.76;100.00;97962.81;4963160;28;19950;-80
2023/03/08 10:27:56;;;;;;;;;;;;;;;1.79;100.00;97962.69;4960878;28;19966;-80
2023/03/08 10:30:23;;;;;;;;;;;;;;;1.80;100.00;97955.88;4957779;28;19943;-80
2023/03/08 10:32:50;;;;;;;;;;;;;;;1.89;100.00;97950.34;4980382;28;19957;-80
2023/03/08 10:35:17;;;;;;;;;;;;;;;1.82;100.00;97944.75;4974792;28;19918;-81
2023/03/08 10:37:48;;;;;;;;;;;;;;;1.65;100.00;97940.59;4976085;28;19918;-81
2023/03/08 10:40:17;;;;;;;;;;;;;;;1.37;100.00;97939.50;4965319;28;20438;-82
2023/03/08 10:42:45;;;;;;;;;;;;;;;1.38;100.00;97932.72;4958822;28;19923;-81
2023/03/08 10:45:19;;;;;;;;;;;;;;;1.34;100.00;97933.75;4964971;28;19968;-81
2023/03/08 10:47:52;;;;;;;;;;;;;;;1.39;100.00;97926.72;4961317;28;19972;-79
2023/03/08 10:50:19;;;;;;;;;;;;;;;1.51;100.00;97915.16;4954926;28;20017;-80
2023/03/08 10:52:45;;;;;;;;;;;;;;;1.50;100.00;97913.50;4979569;28;19914;-76
2023/03/08 10:55:12;;;;;;;;;;;;;;;1.63;100.00;97909.44;4974959;28;19914;-80
2023/03/08 10:57:39;;;;;;;;;;;;;;;1.80;100.00;97895.03;4984863;28;19929;-79
2023/03/08 11:00:12;;;;;;;;;;;;;;;1.61;100.00;97907.00;4967773;28;19930;-80
2023/03/08 11:02:38;;;;;;;;;;;;;;;1.65;100.00;97894.16;4954834;28;19929;-79
2023/03/08 11:05:16;;;;;;;;;;;;;;;1.56;100.00;97882.78;4975167;28;19926;-78
2023/03/08 11:07:48;;;;;;;;;;;;;;;1.43;100.00;97890.22;4955943;28;20049;-79
2023/03/08 11:10:15;;;;;;;;;;;;;;;1.47;100.00;97888.34;4960203;28;19969;-77
2023/03/08 11:12:41;;;;;;;;;;;;;;;1.47;100.00;97886.63;4949511;28;19933;-79
2023/03/08 11:15:14;;;;;;;;;;;;;;;1.52;100.00;97901.59;4953239;28;19926;-78
2023/03/08 11:17:43;;;;;;;;;;;;;;;1.73;100.00;97899.63;4953515;28;20008;-78
2023/03/08 11:20:09;;;;;;;;;;;;;;;1.82;100.00;97888.19;4973911;28;20361;-79
2023/03/08 11:22:50;;;;;;;;;;;;;;;1.87;100.00;97894.66;4937610;28;19922;-80
2023/03/08 11:25:27;;;;;;;;;;;;;;;1.83;100.00;97882.22;4928123;28;19926;-79
2023/03/08 11:28:11;;;;;;;;;;;;;;;1.93;100.00;97883.34;4942166;28;20286;-81
2023/03/08 11:30:36;;;;;;;;;;;;;;;2.04;100.00;97875.16;4984413;28;20365;-79
2023/03/08 11:33:05;;;;;;;;;;;;;;;2.16;100.00;97879.53;4964914;28;19948;-80
2023/03/08 11:35:35;;;;;;;;;;;;;;;2.19;100.00;97879.34;4989462;28;19929;-81